Time;durP1;ratioP1;P1;durP2;ratioP2;P2;SDS_P1;SDS_P2;PMS_P1;PMS_P2;Temp;Humidity;BMP_temperature;BMP_pressure;BME280_temperature;BME280_humidity;BME280_pressure;Samples;Min_cycle;Max_cycle;Signal;HPM_P1;HPM_P2
2023/02/12 00:00:00;;;;;;;21.17;13.13;;;8.80;99.90;;;;;;5128979;27;20451;-78
2023/02/12 00:02:26;;;;;;;22.97;15.00;;;8.80;99.90;;;;;;5094995;28;20021;-78
2023/02/12 00:04:52;;;;;;;28.67;15.60;;;8.80;99.90;;;;;;5096104;28;20084;-78
2023/02/12 00:07:17;;;;;;;25.37;14.97;;;8.90;99.90;;;;;;5128526;27;20024;-78
2023/02/12 00:09:43;;;;;;;25.63;15.57;;;8.80;99.90;;;;;;5094936;28;20032;-78
2023/02/12 00:12:09;;;;;;;23.03;14.60;;;8.80;99.90;;;;;;5094825;28;20051;-78
2023/02/12 00:14:37;;;;;;;25.03;15.13;;;8.90;99.90;;;;;;5111752;28;20020;-79
2023/02/12 00:17:03;;;;;;;25.60;15.90;;;8.80;99.90;;;;;;5094799;28;20020;-78
2023/02/12 00:19:29;;;;;;;23.13;15.33;;;8.80;99.90;;;;;;5096171;28;20361;-78
2023/02/12 00:21:54;;;;;;;23.97;15.00;;;8.80;99.90;;;;;;5094723;28;20484;-78
2023/02/12 00:24:20;;;;;;;27.73;14.97;;;8.80;99.90;;;;;;5129099;27;20054;-78
2023/02/12 00:26:47;;;;;;;21.90;14.17;;;8.90;99.90;;;;;;5111888;28;20500;-78
2023/02/12 00:29:13;;;;;;;23.93;14.90;;;8.90;99.90;;;;;;5128129;27;20152;-79
2023/02/12 00:31:39;;;;;;;26.07;15.67;;;8.80;99.90;;;;;;5127469;27;20035;-78
2023/02/12 00:34:05;;;;;;;25.07;14.73;;;8.90;99.90;;;;;;5095322;28;20032;-77
2023/02/12 00:36:31;;;;;;;24.50;15.13;;;8.90;99.90;;;;;;5111167;28;20028;-78
2023/02/12 00:38:58;;;;;;;29.33;15.63;;;8.80;99.90;;;;;;5093967;28;20032;-78
2023/02/12 00:41:24;;;;;;;25.70;15.37;;;8.80;99.90;;;;;;5094549;28;20023;-79
2023/02/12 00:43:50;;;;;;;35.47;16.50;;;8.80;99.90;;;;;;5128602;27;20156;-80
2023/02/12 00:46:16;;;;;;;29.03;16.70;;;8.80;99.90;;;;;;5093951;28;20020;-79
2023/02/12 00:48:42;;;;;;;27.13;15.40;;;8.80;99.90;;;;;;5110836;28;20035;-78
2023/02/12 00:51:08;;;;;;;27.50;16.23;;;8.70;99.90;;;;;;5110776;28;20030;-79
2023/02/12 00:53:34;;;;;;;25.80;16.90;;;8.70;99.90;;;;;;5127955;27;20357;-79
2023/02/12 00:56:00;;;;;;;26.77;16.77;;;8.70;99.90;;;;;;5093991;28;20035;-78
2023/02/12 00:58:26;;;;;;;28.20;18.00;;;8.70;99.90;;;;;;5095065;28;20043;-80
2023/02/12 01:00:53;;;;;;;26.60;17.57;;;8.70;99.90;;;;;;5110789;28;20114;-79
2023/02/12 01:03:19;;;;;;;30.93;17.40;;;8.60;99.90;;;;;;5093845;28;20024;-79
2023/02/12 01:05:45;;;;;;;31.97;18.17;;;8.60;99.90;;;;;;5094563;28;20491;-79
2023/02/12 01:08:15;;;;;;;31.93;17.63;;;8.60;99.90;;;;;;5110759;28;20044;-79
2023/02/12 01:10:41;;;;;;;31.60;17.77;;;8.60;99.90;;;;;;5093314;28;20531;-78
2023/02/12 01:13:09;;;;;;;27.20;16.63;;;8.60;99.90;;;;;;5127059;27;20078;-78
2023/02/12 01:15:35;;;;;;;28.47;17.10;;;8.50;99.90;;;;;;5099509;28;20032;-79
2023/02/12 01:18:00;;;;;;;27.63;17.40;;;8.50;99.90;;;;;;5074776;28;20032;-79
2023/02/12 01:20:26;;;;;;;28.33;17.77;;;8.50;99.90;;;;;;5092437;28;20559;-79
2023/02/12 01:22:52;;;;;;;29.53;17.30;;;8.50;99.90;;;;;;5097628;28;20091;-79
2023/02/12 01:25:18;;;;;;;28.53;16.30;;;8.50;99.90;;;;;;5055121;28;20477;-79
2023/02/12 01:27:43;;;;;;;27.87;17.73;;;8.50;99.90;;;;;;5089731;28;20032;-78
2023/02/12 01:30:11;;;;;;;31.47;17.47;;;8.50;99.90;;;;;;5107209;28;20040;-78
2023/02/12 01:32:37;;;;;;;30.07;18.40;;;8.50;99.90;;;;;;5089679;28;20106;-79
2023/02/12 01:35:04;;;;;;;28.33;17.43;;;8.50;99.90;;;;;;5106857;28;20368;-79
2023/02/12 01:37:30;;;;;;;26.27;15.10;;;8.50;99.90;;;;;;5106451;28;20146;-79
2023/02/12 01:39:55;;;;;;;27.83;16.47;;;8.50;99.90;;;;;;5106680;28;20127;-79
2023/02/12 01:42:21;;;;;;;28.37;16.40;;;8.40;99.90;;;;;;5106368;28;20109;-78
2023/02/12 01:45:12;;;;;;;36.40;18.07;;;8.50;99.90;;;;;;5106476;28;20417;-79
2023/02/12 01:47:42;;;;;;;27.77;16.87;;;8.40;99.90;;;;;;5072570;28;20035;-78
2023/02/12 01:50:12;;;;;;;27.63;16.37;;;8.50;99.90;;;;;;5089542;28;20058;-79
2023/02/12 01:52:40;;;;;;;26.90;16.07;;;8.50;99.90;;;;;;5074072;28;20490;-79
2023/02/12 01:55:09;;;;;;;27.20;15.73;;;8.50;99.90;;;;;;5073632;28;20027;-79
2023/02/12 01:57:39;;;;;;;24.03;15.83;;;8.40;99.90;;;;;;5089301;28;20031;-78
2023/02/12 02:00:09;;;;;;;28.77;16.87;;;8.40;99.90;;;;;;5073794;28;20066;-79
2023/02/12 02:02:38;;;;;;;26.53;15.80;;;8.40;99.90;;;;;;5106034;28;20024;-79
2023/02/12 02:05:04;;;;;;;27.83;16.83;;;8.40;99.90;;;;;;5106023;28;20025;-79
2023/02/12 02:07:30;;;;;;;24.77;16.67;;;8.40;99.90;;;;;;5088262;28;20358;-80
2023/02/12 02:09:57;;;;;;;34.33;16.43;;;8.40;99.90;;;;;;5105930;28;20035;-79
2023/02/12 02:15:09;;;;;;;25.10;16.43;;;8.40;99.90;;;;;;5073179;28;20047;-79
2023/02/12 02:17:40;;;;;;;28.80;17.03;;;8.40;99.90;;;;;;5106163;28;20090;-79
2023/02/12 02:20:34;;;;;;;23.53;14.70;;;8.40;99.90;;;;;;5072967;28;20036;-79
2023/02/12 02:23:09;;;;;;;26.97;15.33;;;8.40;99.90;;;;;;5073481;28;20048;-79
2023/02/12 02:25:47;;;;;;;29.03;16.87;;;8.30;99.90;;;;;;5072187;28;20115;-79
2023/02/12 02:28:18;;;;;;;26.00;16.43;;;8.30;99.90;;;;;;5073096;28;20025;-79
2023/02/12 02:31:03;;;;;;;29.67;16.07;;;8.20;99.90;;;;;;5073675;28;20028;-79
2023/02/12 02:33:46;;;;;;;26.53;17.13;;;8.20;99.90;;;;;;5088398;28;20029;-79
2023/02/12 02:36:40;;;;;;;24.97;15.73;;;8.20;99.90;;;;;;5073214;28;20028;-78
2023/02/12 02:39:22;;;;;;;25.70;15.10;;;8.20;99.90;;;;;;5073089;28;20036;-78
2023/02/12 02:42:00;;;;;;;26.93;16.00;;;8.10;99.90;;;;;;5088341;28;20025;-79
2023/02/12 02:44:34;;;;;;;26.47;15.73;;;8.10;99.90;;;;;;5073283;28;20027;-78
2023/02/12 02:47:01;;;;;;;27.50;16.00;;;8.10;99.90;;;;;;5071667;28;20031;-78
2023/02/12 02:49:49;;;;;;;25.57;16.60;;;8.10;99.90;;;;;;5105413;28;20048;-77
2023/02/12 02:52:29;;;;;;;29.43;16.03;;;8.00;99.90;;;;;;5105305;28;20485;-78
2023/02/12 02:55:00;;;;;;;30.07;17.17;;;8.10;99.90;;;;;;5088331;28;20358;-78
2023/02/12 02:57:37;;;;;;;28.07;16.17;;;8.00;99.90;;;;;;5071819;28;20109;-78
2023/02/12 03:00:17;;;;;;;29.17;16.60;;;8.00;99.90;;;;;;5088091;28;20041;-78
2023/02/12 03:02:52;;;;;;;29.50;16.67;;;7.90;99.90;;;;;;5088552;28;20020;-78
2023/02/12 03:05:25;;;;;;;28.90;16.33;;;7.90;99.90;;;;;;5073221;28;20032;-78
2023/02/12 03:08:00;;;;;;;27.13;16.67;;;7.90;99.90;;;;;;5088091;28;20369;-78
2023/02/12 03:10:35;;;;;;;28.50;17.80;;;7.90;99.90;;;;;;5088606;28;20024;-79
2023/02/12 03:13:11;;;;;;;32.10;16.77;;;7.90;99.90;;;;;;5087963;28;20029;-79
2023/02/12 03:15:56;;;;;;;30.60;17.83;;;7.90;99.90;;;;;;5088634;28;20021;-79
2023/02/12 03:18:35;;;;;;;27.03;16.87;;;8.00;99.90;;;;;;5105621;28;20031;-79
2023/02/12 03:21:05;;;;;;;26.90;16.63;;;7.80;99.90;;;;;;5072588;28;20067;-79
2023/02/12 03:23:38;;;;;;;29.50;17.43;;;7.90;99.90;;;;;;5105268;28;20380;-79
2023/02/12 03:26:13;;;;;;;27.73;16.30;;;7.80;99.90;;;;;;5088146;28;20056;-79
2023/02/12 03:28:39;;;;;;;28.47;16.60;;;7.80;99.90;;;;;;5105432;28;20025;-79
2023/02/12 03:31:36;;;;;;;33.33;17.23;;;7.90;99.90;;;;;;5072711;28;20028;-79
2023/02/12 03:34:02;;;;;;;26.43;16.23;;;7.90;99.90;;;;;;5087987;28;20025;-79
2023/02/12 03:36:46;;;;;;;28.07;16.53;;;7.90;99.90;;;;;;5071243;28;20090;-79
2023/02/12 03:39:42;;;;;;;28.23;15.77;;;7.90;99.90;;;;;;5088067;28;20496;-78
2023/02/12 03:42:32;;;;;;;27.53;17.20;;;7.80;99.90;;;;;;5087896;28;20055;-79
2023/02/12 03:45:17;;;;;;;29.93;16.40;;;7.80;99.90;;;;;;5071233;28;20035;-79
2023/02/12 03:47:58;;;;;;;29.98;16.15;;;7.90;99.90;;;;;;5072522;28;20461;-79
2023/02/12 03:50:46;;;;;;;29.17;17.30;;;7.80;99.90;;;;;;5088058;28;20373;-79
2023/02/12 03:53:12;;;;;;;27.23;16.73;;;7.80;99.90;;;;;;5072435;28;20599;-79
2023/02/12 03:55:41;;;;;;;28.70;17.30;;;7.80;99.90;;;;;;5071056;28;20033;-79
2023/02/12 03:58:11;;;;;;;29.37;18.00;;;7.80;99.90;;;;;;5087786;28;20045;-79
2023/02/12 04:00:37;;;;;;;25.83;16.60;;;7.80;99.90;;;;;;5087962;28;20461;-79
2023/02/12 04:03:04;;;;;;;30.20;16.30;;;7.80;99.90;;;;;;5104682;28;20024;-79
2023/02/12 04:05:30;;;;;;;28.80;18.13;;;7.80;99.90;;;;;;5107370;28;20079;-79
2023/02/12 04:07:59;;;;;;;27.30;17.17;;;7.80;99.90;;;;;;5091388;28;20146;-79
2023/02/12 04:10:45;;;;;;;27.57;15.10;;;7.70;99.90;;;;;;5076142;28;20029;-78
2023/02/12 04:13:23;;;;;;;27.90;16.40;;;7.80;99.90;;;;;;5091181;28;20031;-79
2023/02/12 04:16:23;;;;;;;30.43;15.93;;;7.80;99.90;;;;;;5091191;28;20032;-79
2023/02/12 04:18:49;;;;;;;25.43;14.90;;;7.80;99.90;;;;;;5091370;28;20434;-78
2023/02/12 04:21:40;;;;;;;26.53;15.27;;;7.80;99.90;;;;;;5075714;28;20053;-78
2023/02/12 04:24:18;;;;;;;27.23;16.30;;;7.80;99.90;;;;;;5075410;28;20036;-78
2023/02/12 04:26:58;;;;;;;28.43;16.90;;;7.80;99.90;;;;;;5091334;28;20055;-79
2023/02/12 04:29:40;;;;;;;27.93;16.97;;;7.80;99.90;;;;;;5075674;28;20186;-79
2023/02/12 04:32:19;;;;;;;26.80;16.93;;;7.70;99.90;;;;;;5072857;28;20457;-78
2023/02/12 04:35:23;;;;;;;29.43;17.37;;;7.70;99.90;;;;;;5106971;28;20551;-79
2023/02/12 04:38:08;;;;;;;27.27;17.10;;;7.70;99.90;;;;;;5065045;28;20032;-78
2023/02/12 04:40:34;;;;;;;28.53;16.17;;;7.70;99.90;;;;;;5074089;28;20427;-78
2023/02/12 04:43:00;;;;;;;31.70;17.60;;;7.70;99.90;;;;;;5057679;28;20024;-79
2023/02/12 04:45:28;;;;;;;29.10;16.57;;;7.70;99.90;;;;;;5073353;28;20131;-78
2023/02/12 04:47:54;;;;;;;28.07;15.43;;;7.70;99.90;;;;;;5074966;28;20018;-78
2023/02/12 04:50:20;;;;;;;27.50;15.93;;;7.80;99.90;;;;;;5090776;28;20380;-78
2023/02/12 04:52:46;;;;;;;27.30;16.50;;;7.70;99.90;;;;;;5074958;28;20021;-78
2023/02/12 04:55:12;;;;;;;24.73;15.67;;;7.70;99.90;;;;;;5073551;28;20063;-78
2023/02/12 04:57:37;;;;;;;28.07;16.37;;;7.70;99.90;;;;;;5073848;28;20052;-78
2023/02/12 05:00:10;;;;;;;24.73;16.13;;;7.70;99.90;;;;;;5073900;28;20453;-78
2023/02/12 05:02:35;;;;;;;27.53;16.00;;;7.70;99.90;;;;;;5074727;28;20107;-78
2023/02/12 05:05:01;;;;;;;25.73;15.93;;;7.80;99.90;;;;;;5073498;28;20108;-78
2023/02/12 05:07:27;;;;;;;30.43;16.83;;;7.80;99.90;;;;;;5073477;28;20055;-79
2023/02/12 05:09:53;;;;;;;25.63;16.63;;;7.80;99.90;;;;;;5056610;28;20036;-78
2023/02/12 05:12:19;;;;;;;28.00;16.33;;;7.80;99.90;;;;;;5073551;28;20469;-78
2023/02/12 05:14:44;;;;;;;27.50;16.17;;;7.80;99.90;;;;;;5073462;28;20036;-79
2023/02/12 05:17:10;;;;;;;27.07;16.57;;;7.80;99.90;;;;;;5056159;28;20036;-78
2023/02/12 05:19:35;;;;;;;27.50;14.83;;;7.80;99.90;;;;;;5056579;28;20055;-79
2023/02/12 05:22:01;;;;;;;27.47;15.93;;;7.80;99.90;;;;;;5074195;28;20041;-79
2023/02/12 05:24:27;;;;;;;28.93;16.57;;;7.80;99.90;;;;;;5056333;28;20055;-79
2023/02/12 05:26:53;;;;;;;32.10;18.57;;;7.80;99.90;;;;;;5056905;28;20021;-79
2023/02/12 05:29:18;;;;;;;32.33;18.60;;;7.80;99.90;;;;;;5073297;28;20061;-78
2023/02/12 05:31:44;;;;;;;29.33;18.43;;;7.80;99.90;;;;;;5072954;28;20032;-79
2023/02/12 05:34:11;;;;;;;28.63;19.00;;;7.80;99.90;;;;;;5106783;28;20087;-78
2023/02/12 05:36:36;;;;;;;27.03;17.10;;;7.80;99.90;;;;;;5072435;28;20024;-78
2023/02/12 05:39:02;;;;;;;29.93;18.67;;;7.80;99.90;;;;;;5072920;28;20052;-78
2023/02/12 05:41:33;;;;;;;30.57;19.77;;;7.80;99.90;;;;;;5073124;28;20031;-78
2023/02/12 05:43:59;;;;;;;28.10;17.60;;;7.80;99.90;;;;;;5073034;28;20029;-78
2023/02/12 05:46:24;;;;;;;29.20;18.00;;;7.80;99.90;;;;;;5055959;28;20021;-78
2023/02/12 05:48:50;;;;;;;30.63;18.33;;;7.90;99.90;;;;;;5072649;28;20037;-78
2023/02/12 05:51:20;;;;;;;27.67;17.07;;;7.90;99.90;;;;;;5071996;28;20036;-78
2023/02/12 05:53:46;;;;;;;31.40;17.80;;;7.90;99.90;;;;;;5074865;28;20066;-78
2023/02/12 05:56:15;;;;;;;28.87;16.97;;;7.90;99.90;;;;;;5070169;28;20055;-78
2023/02/12 05:58:44;;;;;;;29.87;17.50;;;7.90;99.90;;;;;;5081096;28;20040;-79
2023/02/12 06:01:15;;;;;;;24.90;16.13;;;7.80;99.90;;;;;;5118664;27;20115;-79
2023/02/12 06:03:41;;;;;;;26.30;16.40;;;7.80;99.90;;;;;;5080016;28;20403;-79
2023/02/12 06:06:07;;;;;;;28.03;17.03;;;7.80;99.90;;;;;;5070387;28;20020;-79
2023/02/12 06:08:33;;;;;;;27.00;17.37;;;7.80;99.90;;;;;;5072565;28;20025;-78
2023/02/12 06:11:03;;;;;;;27.57;17.53;;;7.80;99.90;;;;;;5072614;28;20456;-79
2023/02/12 06:13:30;;;;;;;31.40;18.07;;;7.80;99.90;;;;;;5073699;28;20468;-78
2023/02/12 06:15:56;;;;;;;27.50;18.40;;;7.80;99.90;;;;;;5073694;28;20060;-78
2023/02/12 06:18:22;;;;;;;32.43;19.07;;;7.80;99.90;;;;;;5071980;28;20028;-79
2023/02/12 06:20:47;;;;;;;29.80;17.77;;;7.80;99.90;;;;;;5088925;28;20098;-79
2023/02/12 06:23:13;;;;;;;29.07;17.47;;;7.80;99.90;;;;;;5088890;28;20580;-79
2023/02/12 06:25:39;;;;;;;29.43;16.30;;;7.80;99.90;;;;;;5072082;28;20052;-79
2023/02/12 06:28:04;;;;;;;29.33;16.53;;;7.80;99.90;;;;;;5072058;28;20021;-78
2023/02/12 06:30:32;;;;;;;27.30;16.50;;;7.80;99.90;;;;;;5071670;28;20028;-78
2023/02/12 06:32:58;;;;;;;32.30;18.90;;;7.90;99.90;;;;;;5073010;28;20025;-78
2023/02/12 06:35:23;;;;;;;29.43;17.80;;;7.80;99.90;;;;;;5088916;28;20039;-78
2023/02/12 06:37:49;;;;;;;32.83;19.63;;;7.90;99.90;;;;;;5088486;28;20024;-78
2023/02/12 06:40:15;;;;;;;30.13;19.00;;;7.90;99.90;;;;;;5088347;28;20450;-78
2023/02/12 06:42:40;;;;;;;29.63;18.90;;;7.90;99.90;;;;;;5088730;28;20056;-78
2023/02/12 06:45:06;;;;;;;33.13;19.30;;;7.90;99.90;;;;;;5086916;28;20020;-78
2023/02/12 06:47:32;;;;;;;28.83;19.03;;;7.90;99.90;;;;;;5091739;28;20024;-78
2023/02/12 06:49:58;;;;;;;27.13;16.90;;;7.90;99.90;;;;;;5107229;28;20024;-78
2023/02/12 06:52:23;;;;;;;27.90;17.13;;;7.90;99.90;;;;;;5091140;28;20039;-78
2023/02/12 06:54:49;;;;;;;27.10;16.50;;;7.90;99.90;;;;;;5092038;28;20024;-78
2023/02/12 06:57:15;;;;;;;27.47;16.77;;;7.90;99.90;;;;;;5091724;28;20034;-78
2023/02/12 06:59:40;;;;;;;28.10;17.67;;;7.90;99.90;;;;;;5108300;28;20063;-78
2023/02/12 07:02:06;;;;;;;25.90;16.07;;;7.90;99.90;;;;;;5091894;28;20047;-78
2023/02/12 07:04:31;;;;;;;28.63;17.23;;;7.90;99.90;;;;;;5108856;28;20111;-78
2023/02/12 07:06:57;;;;;;;29.60;18.03;;;7.90;99.90;;;;;;5125598;28;20111;-78
2023/02/12 07:09:23;;;;;;;27.17;16.30;;;8.00;99.90;;;;;;5091915;28;20036;-78
2023/02/12 07:11:48;;;;;;;29.60;17.30;;;7.90;99.90;;;;;;5091538;28;20442;-79
2023/02/12 07:14:15;;;;;;;29.20;17.00;;;8.00;99.90;;;;;;5091588;28;20111;-78
2023/02/12 07:16:41;;;;;;;29.73;17.80;;;8.00;99.90;;;;;;5109051;28;20058;-78
2023/02/12 07:19:06;;;;;;;29.03;17.67;;;8.00;99.90;;;;;;5108761;28;20491;-79
2023/02/12 07:21:32;;;;;;;27.23;17.63;;;8.00;99.90;;;;;;5125600;27;20048;-78
2023/02/12 07:23:58;;;;;;;31.53;18.50;;;8.00;99.90;;;;;;5091733;28;20028;-78
2023/02/12 07:26:24;;;;;;;27.87;17.40;;;8.00;99.90;;;;;;5091238;28;20016;-79
2023/02/12 07:28:50;;;;;;;29.50;18.50;;;8.10;99.90;;;;;;5112736;27;20024;-80
2023/02/12 07:31:21;;;;;;;27.57;16.87;;;8.10;99.90;;;;;;5105274;28;20108;-78
2023/02/12 07:33:47;;;;;;;29.77;18.93;;;8.10;99.90;;;;;;5072441;28;20102;-78
2023/02/12 07:36:16;;;;;;;30.33;18.03;;;8.10;99.90;;;;;;5071216;28;20028;-80
2023/02/12 07:38:42;;;;;;;28.60;18.13;;;8.10;99.90;;;;;;5071482;28;20036;-78
2023/02/12 07:41:13;;;;;;;29.83;18.17;;;8.10;99.90;;;;;;5099026;28;20032;-78
2023/02/12 07:43:44;;;;;;;28.17;18.60;;;8.20;99.90;;;;;;5095736;28;20488;-78
2023/02/12 07:46:21;;;;;;;28.83;18.70;;;8.20;99.90;;;;;;5092413;28;20032;-78
2023/02/12 07:48:49;;;;;;;31.97;19.50;;;8.30;99.90;;;;;;5093638;28;20490;-78
2023/02/12 07:51:18;;;;;;;33.83;19.27;;;8.20;99.90;;;;;;5094925;28;20047;-78
2023/02/12 07:53:43;;;;;;;31.23;20.23;;;8.30;99.90;;;;;;5095164;28;20016;-79
2023/02/12 07:56:16;;;;;;;27.40;19.43;;;8.30;99.90;;;;;;5098988;28;20025;-79
2023/02/12 07:58:46;;;;;;;28.13;18.53;;;8.30;99.90;;;;;;5083245;28;20055;-78
2023/02/12 08:01:13;;;;;;;25.43;17.20;;;8.40;99.90;;;;;;5095854;28;20054;-78
2023/02/12 08:03:39;;;;;;;27.23;18.47;;;8.40;99.90;;;;;;5095793;28;20020;-78
2023/02/12 08:06:14;;;;;;;27.87;18.57;;;8.30;99.90;;;;;;5094253;28;20035;-78
2023/02/12 08:08:40;;;;;;;29.73;18.33;;;8.40;99.90;;;;;;5094363;28;20499;-78
2023/02/12 08:11:09;;;;;;;27.67;18.63;;;8.40;99.90;;;;;;5095882;28;20028;-78
2023/02/12 08:13:36;;;;;;;29.07;18.87;;;8.40;99.90;;;;;;5096000;28;20032;-78
2023/02/12 08:16:05;;;;;;;29.13;17.43;;;8.40;99.90;;;;;;5096249;28;20024;-78
2023/02/12 08:18:32;;;;;;;29.27;18.03;;;8.40;99.90;;;;;;5094974;28;20039;-78
2023/02/12 08:21:06;;;;;;;25.87;16.83;;;8.50;99.90;;;;;;5095764;28;20048;-78
2023/02/12 08:23:32;;;;;;;25.50;16.80;;;8.50;99.90;;;;;;5095433;28;20020;-78
2023/02/12 08:26:10;;;;;;;26.67;17.17;;;8.50;99.90;;;;;;5094857;28;20024;-79
2023/02/12 08:28:37;;;;;;;28.73;17.47;;;8.50;99.90;;;;;;5096078;28;20024;-79
2023/02/12 08:31:06;;;;;;;27.50;17.53;;;8.60;99.90;;;;;;5095490;28;20032;-80
2023/02/12 08:33:32;;;;;;;29.23;17.83;;;8.60;99.90;;;;;;5095196;28;20032;-79
2023/02/12 08:36:03;;;;;;;28.13;18.10;;;8.60;99.90;;;;;;5094278;28;20081;-79
2023/02/12 08:38:30;;;;;;;27.87;17.03;;;8.60;99.90;;;;;;5095457;28;20028;-79
2023/02/12 08:40:59;;;;;;;26.27;17.20;;;8.60;99.90;;;;;;5094344;28;20032;-79
2023/02/12 08:43:25;;;;;;;28.57;17.93;;;8.60;99.90;;;;;;5091467;28;20017;-78
2023/02/12 08:45:51;;;;;;;29.37;17.10;;;8.70;99.90;;;;;;5093818;28;20111;-78
2023/02/12 08:48:19;;;;;;;26.10;17.53;;;8.70;99.90;;;;;;5093783;28;20082;-79
2023/02/12 08:50:45;;;;;;;26.43;18.43;;;8.80;99.90;;;;;;5101136;28;20035;-79
2023/02/12 08:53:11;;;;;;;28.40;17.43;;;8.80;99.90;;;;;;5093069;28;20065;-79
2023/02/12 08:55:36;;;;;;;25.17;17.83;;;8.80;99.90;;;;;;5102110;28;20024;-79
2023/02/12 08:58:02;;;;;;;26.50;17.27;;;8.80;99.90;;;;;;5068271;28;20020;-79
2023/02/12 09:00:28;;;;;;;28.47;17.00;;;8.80;99.90;;;;;;5085975;28;20028;-79
2023/02/12 09:02:54;;;;;;;31.27;18.20;;;8.80;99.90;;;;;;5095019;28;20016;-80
2023/02/12 09:05:19;;;;;;;29.60;17.60;;;8.80;99.90;;;;;;5086300;28;20028;-79
2023/02/12 09:07:45;;;;;;;29.00;17.73;;;8.80;99.90;;;;;;5078693;28;20051;-79
2023/02/12 09:10:11;;;;;;;30.43;17.67;;;8.90;99.90;;;;;;5098079;28;20086;-80
2023/02/12 09:12:36;;;;;;;27.73;17.67;;;8.90;99.90;;;;;;5094816;28;20353;-80
2023/02/12 09:15:02;;;;;;;29.50;19.03;;;8.90;99.90;;;;;;5091891;28;20024;-80
2023/02/12 09:17:29;;;;;;;31.77;18.53;;;8.90;99.90;;;;;;5083347;28;20431;-78
2023/02/12 09:19:56;;;;;;;29.43;18.73;;;8.90;99.90;;;;;;5093737;28;20036;-79
2023/02/12 09:22:21;;;;;;;28.20;18.50;;;9.00;99.90;;;;;;5085740;28;20139;-79
2023/02/12 09:24:47;;;;;;;27.97;19.17;;;9.00;99.90;;;;;;5073790;28;20104;-79
2023/02/12 09:27:13;;;;;;;27.57;19.00;;;9.00;99.90;;;;;;5071785;28;20028;-78
2023/02/12 09:29:38;;;;;;;26.13;18.00;;;9.00;99.90;;;;;;5054906;28;20678;-78
2023/02/12 09:32:05;;;;;;;27.47;18.53;;;9.00;99.90;;;;;;5073534;28;20535;-78
2023/02/12 09:34:34;;;;;;;26.47;17.70;;;9.10;99.90;;;;;;5056002;28;20523;-78
2023/02/12 09:37:00;;;;;;;30.77;18.63;;;9.10;99.90;;;;;;5071531;28;20120;-79
2023/02/12 09:39:29;;;;;;;29.20;19.63;;;9.20;99.90;;;;;;5056309;28;20101;-79
2023/02/12 09:42:16;;;;;;;29.43;20.13;;;9.20;99.90;;;;;;5090190;28;20058;-78
2023/02/12 09:44:54;;;;;;;28.20;18.50;;;9.30;99.90;;;;;;5072756;28;20023;-78
2023/02/12 09:47:33;;;;;;;32.30;20.63;;;9.30;99.90;;;;;;5072911;28;20101;-78
2023/02/12 09:50:04;;;;;;;32.40;20.37;;;9.30;99.90;;;;;;5073641;28;20047;-78
2023/02/12 09:52:30;;;;;;;31.53;21.03;;;9.30;99.90;;;;;;5073900;28;20024;-78
2023/02/12 09:54:57;;;;;;;33.20;21.43;;;9.30;99.90;;;;;;5055780;28;20033;-78
2023/02/12 09:57:29;;;;;;;36.33;21.90;;;9.40;99.90;;;;;;5092334;28;20040;-78
2023/02/12 10:00:14;;;;;;;33.97;20.43;;;9.40;99.90;;;;;;5072526;28;20043;-79
2023/02/12 10:02:40;;;;;;;34.63;21.63;;;9.50;99.90;;;;;;5071767;28;20357;-78
2023/02/12 10:05:19;;;;;;;34.57;21.40;;;9.50;99.90;;;;;;5090803;28;20494;-78
2023/02/12 10:08:03;;;;;;;35.23;22.67;;;9.60;99.90;;;;;;5093503;28;20110;-78
2023/02/12 10:11:09;;;;;;;31.83;20.60;;;9.60;99.90;;;;;;5092738;28;20028;-78
2023/02/12 10:14:16;;;;;;;32.30;20.43;;;9.60;99.90;;;;;;5093671;28;20020;-78
2023/02/12 10:16:56;;;;;;;31.57;20.50;;;9.70;99.90;;;;;;5075569;28;20032;-78
2023/02/12 10:19:48;;;;;;;34.50;21.40;;;9.70;99.90;;;;;;5092231;28;20035;-78
2023/02/12 10:22:37;;;;;;;34.30;20.73;;;9.70;99.90;;;;;;5069938;28;20050;-78
2023/02/12 10:25:34;;;;;;;31.67;20.97;;;9.70;99.90;;;;;;5072067;28;20100;-78
2023/02/12 10:28:07;;;;;;;33.70;20.63;;;9.80;99.80;;;;;;5073142;28;20032;-78
2023/02/12 10:30:54;;;;;;;32.47;21.13;;;9.80;99.70;;;;;;5052903;28;20025;-78
2023/02/12 10:33:30;;;;;;;31.60;20.67;;;9.90;99.50;;;;;;5051842;28;20111;-78
2023/02/12 10:36:12;;;;;;;32.93;20.30;;;9.90;99.30;;;;;;5051494;28;20025;-78
2023/02/12 10:38:41;;;;;;;33.77;21.30;;;9.90;99.10;;;;;;5051660;28;20063;-78
2023/02/12 10:41:11;;;;;;;34.20;20.87;;;10.00;99.00;;;;;;5051224;28;20025;-78
2023/02/12 10:43:37;;;;;;;30.73;19.87;;;9.90;98.90;;;;;;5053590;28;20025;-78
2023/02/12 10:46:04;;;;;;;33.47;21.80;;;10.00;98.70;;;;;;5035293;28;20063;-78
2023/02/12 10:48:38;;;;;;;30.20;21.00;;;10.00;98.60;;;;;;5052081;28;20029;-78
2023/02/12 10:51:07;;;;;;;30.48;19.30;;;10.00;98.40;;;;;;5031960;28;20025;-78
2023/02/12 10:53:35;;;;;;;43.93;20.20;;;10.00;98.20;;;;;;5031358;28;20424;-78
2023/02/12 10:56:24;;;;;;;31.17;19.13;;;10.10;97.70;;;;;;5048323;28;20017;-78
2023/02/12 10:58:52;;;;;;;29.73;18.17;;;10.10;97.40;;;;;;5046151;28;20075;-78
2023/02/12 11:01:34;;;;;;;27.30;17.87;;;10.10;97.20;;;;;;5032885;28;20116;-78
2023/02/12 11:04:26;;;;;;;28.57;18.03;;;10.10;97.00;;;;;;5049071;28;20028;-78
2023/02/12 11:07:22;;;;;;;28.77;17.03;;;10.10;96.80;;;;;;5042882;28;20021;-78
2023/02/12 11:09:49;;;;;;;27.87;17.83;;;10.20;96.80;;;;;;5041439;28;20038;-77
2023/02/12 11:12:19;;;;;;;26.30;17.03;;;10.20;96.60;;;;;;5048381;28;20085;-77
2023/02/12 11:14:51;;;;;;;27.57;16.53;;;10.20;96.40;;;;;;5051368;28;20067;-78
2023/02/12 11:17:28;;;;;;;29.30;17.10;;;10.30;96.20;;;;;;5055126;28;20051;-78
2023/02/12 11:20:16;;;;;;;28.77;17.60;;;10.30;95.90;;;;;;5055344;28;20496;-78
2023/02/12 11:23:26;;;;;;;26.77;16.47;;;10.30;95.70;;;;;;5087452;28;20048;-78
2023/02/12 11:26:02;;;;;;;25.77;16.17;;;10.30;95.60;;;;;;5086745;28;20391;-78
2023/02/12 11:28:29;;;;;;;27.97;16.87;;;10.30;95.20;;;;;;5092556;28;20040;-78
2023/02/12 11:31:17;;;;;;;25.27;15.53;;;10.40;95.10;;;;;;5090726;28;20036;-78
2023/02/12 11:33:44;;;;;;;27.50;16.30;;;10.40;95.00;;;;;;5078467;28;20041;-78
2023/02/12 11:36:15;;;;;;;26.00;15.83;;;10.40;94.90;;;;;;5073314;28;20020;-78
2023/02/12 11:38:55;;;;;;;24.50;15.00;;;10.40;94.60;;;;;;5122103;27;20089;-78
2023/02/12 11:41:36;;;;;;;24.27;15.80;;;10.40;94.40;;;;;;5095553;28;20051;-78
2023/02/12 11:44:11;;;;;;;22.47;14.37;;;10.50;94.30;;;;;;5078668;28;20032;-78
2023/02/12 11:46:38;;;;;;;23.50;14.87;;;10.50;94.10;;;;;;5080892;28;20031;-78
2023/02/12 11:49:05;;;;;;;22.47;13.77;;;10.50;93.90;;;;;;5094943;28;20025;-78
2023/02/12 11:51:31;;;;;;;26.83;15.90;;;10.50;93.80;;;;;;5095136;28;20491;-78
2023/02/12 11:54:00;;;;;;;20.98;13.23;;;10.50;93.40;;;;;;5093176;28;20036;-83
2023/02/12 11:56:44;;;;;;;23.45;14.25;;;10.60;93.30;;;;;;5091802;28;20020;-79
2023/02/12 11:59:30;;;;;;;23.85;15.90;;;10.50;93.10;;;;;;5092924;28;20036;-79
2023/02/12 12:02:02;;;;;;;23.17;14.60;;;10.60;92.90;;;;;;5095161;28;20043;-80
2023/02/12 12:04:32;;;;;;;22.47;13.70;;;10.60;92.70;;;;;;5094823;28;20388;-79
2023/02/12 12:07:27;;;;;;;27.70;15.90;;;10.60;92.60;;;;;;5094335;28;20074;-79
2023/02/12 12:10:04;;;;;;;24.77;13.90;;;10.60;92.40;;;;;;5093324;28;20020;-80
2023/02/12 12:12:41;;;;;;;22.67;13.77;;;10.70;92.20;;;;;;5093750;28;20115;-81
2023/02/12 12:21:33;;;;;;;24.73;14.80;;;10.80;91.80;;;;;;5095874;28;20059;-82
2023/02/12 12:24:08;;;;;;;22.30;13.75;;;10.70;91.50;;;;;;5094571;28;20028;-82
2023/02/12 12:26:33;;;;;;;25.02;15.20;;;10.80;91.50;;;;;;5093959;28;20028;-82
2023/02/12 12:29:21;;;;;;;23.83;15.33;;;10.80;91.20;;;;;;5111081;28;20123;-82
2023/02/12 12:31:58;;;;;;;25.80;15.60;;;10.80;91.10;;;;;;5094090;28;20028;-81
2023/02/12 12:34:26;;;;;;;24.43;15.07;;;10.80;91.00;;;;;;5094498;28;20028;-83
2023/02/12 12:37:01;;;;;;;24.60;16.00;;;10.80;91.00;;;;;;5094345;28;20024;-81
2023/02/12 12:39:56;;;;;;;21.63;13.47;;;10.80;91.00;;;;;;5094781;28;20138;-82
2023/02/12 12:42:47;;;;;;;21.73;13.20;;;10.80;90.90;;;;;;5094421;28;20062;-82
2023/02/12 12:45:41;;;;;;;23.13;13.70;;;10.80;90.90;;;;;;5094261;28;20185;-82
2023/02/12 12:48:28;;;;;;;22.75;13.20;;;10.80;90.40;;;;;;5093227;28;20480;-82
2023/02/12 12:51:24;;;;;;;18.37;11.00;;;10.70;90.40;;;;;;5091881;28;20082;-82
2023/02/12 12:54:10;;;;;;;19.40;11.90;;;10.70;90.50;;;;;;5085517;28;20052;-82
2023/02/12 12:56:42;;;;;;;20.30;12.03;;;10.80;90.50;;;;;;5094453;28;20012;-82
2023/02/12 12:59:35;;;;;;;22.23;11.57;;;10.80;90.50;;;;;;5094096;28;20106;-82
2023/02/12 13:02:24;;;;;;;14.63;9.50;;;10.80;90.50;;;;;;5093907;28;20032;-82
2023/02/12 13:05:24;;;;;;;19.93;11.97;;;10.80;90.60;;;;;;5093059;28;20020;-82
2023/02/12 13:08:08;;;;;;;20.10;12.47;;;10.80;90.30;;;;;;5093540;28;20110;-82